sensor_id;sensor_type;location;lat;lon;timestamp;P1;durP1;ratioP1;P2;durP2;ratioP2
21091;SDS011;10704;42.678;23.288;2023-02-21T00:04:47;14.50;;;5.25;;
21091;SDS011;10704;42.678;23.288;2023-02-21T00:07:32;12.38;;;5.00;;
21091;SDS011;10704;42.678;23.288;2023-02-21T00:10:16;12.30;;;5.15;;
21091;SDS011;10704;42.678;23.288;2023-02-21T00:13:01;11.80;;;4.93;;
21091;SDS011;10704;42.678;23.288;2023-02-21T00:15:45;11.57;;;4.15;;
21091;SDS011;10704;42.678;23.288;2023-02-21T00:18:36;11.07;;;4.80;;
21091;SDS011;10704;42.678;23.288;2023-02-21T00:21:21;11.77;;;5.80;;
21091;SDS011;10704;42.678;23.288;2023-02-21T00:31:50;11.68;;;5.47;;
21091;SDS011;10704;42.678;23.288;2023-02-21T00:34:35;12.68;;;6.15;;
21091;SDS011;10704;42.678;23.288;2023-02-21T00:37:20;11.73;;;5.57;;
21091;SDS011;10704;42.678;23.288;2023-02-21T00:40:05;13.55;;;5.85;;
21091;SDS011;10704;42.678;23.288;2023-02-21T00:54:11;13.82;;;5.70;;
21091;SDS011;10704;42.678;23.288;2023-02-21T00:56:56;9.68;;;4.78;;
21091;SDS011;10704;42.678;23.288;2023-02-21T00:59:41;11.02;;;5.15;;
21091;SDS011;10704;42.678;23.288;2023-02-21T01:02:25;13.60;;;5.20;;
21091;SDS011;10704;42.678;23.288;2023-02-21T01:05:10;12.40;;;5.28;;
21091;SDS011;10704;42.678;23.288;2023-02-21T01:07:55;13.82;;;5.53;;
21091;SDS011;10704;42.678;23.288;2023-02-21T01:10:39;11.10;;;5.28;;
21091;SDS011;10704;42.678;23.288;2023-02-21T01:13:24;12.88;;;5.82;;
21091;SDS011;10704;42.678;23.288;2023-02-21T01:16:08;12.63;;;5.72;;
21091;SDS011;10704;42.678;23.288;2023-02-21T01:18:53;11.20;;;5.70;;
21091;SDS011;10704;42.678;23.288;2023-02-21T01:21:38;12.35;;;5.65;;
21091;SDS011;10704;42.678;23.288;2023-02-21T01:24:24;11.00;;;5.80;;
21091;SDS011;10704;42.678;23.288;2023-02-21T01:27:08;11.50;;;5.55;;
21091;SDS011;10704;42.678;23.288;2023-02-21T01:33:41;9.75;;;5.03;;
21091;SDS011;10704;42.678;23.288;2023-02-21T01:36:26;12.63;;;5.22;;
21091;SDS011;10704;42.678;23.288;2023-02-21T01:39:10;10.90;;;4.97;;
21091;SDS011;10704;42.678;23.288;2023-02-21T01:41:58;14.43;;;5.47;;
21091;SDS011;10704;42.678;23.288;2023-02-21T01:44:44;8.15;;;4.90;;
21091;SDS011;10704;42.678;23.288;2023-02-21T01:47:31;14.18;;;5.30;;
21091;SDS011;10704;42.678;23.288;2023-02-21T01:53:14;10.27;;;5.00;;
21091;SDS011;10704;42.678;23.288;2023-02-21T01:59:52;10.40;;;4.85;;
21091;SDS011;10704;42.678;23.288;2023-02-21T02:05:42;13.75;;;4.95;;
21091;SDS011;10704;42.678;23.288;2023-02-21T02:08:31;13.00;;;4.80;;
21091;SDS011;10704;42.678;23.288;2023-02-21T02:29:44;17.38;;;6.75;;
21091;SDS011;10704;42.678;23.288;2023-02-21T02:48:30;17.08;;;5.63;;
21091;SDS011;10704;42.678;23.288;2023-02-21T02:53:49;13.90;;;5.60;;
21091;SDS011;10704;42.678;23.288;2023-02-21T03:10:54;9.77;;;3.67;;
21091;SDS011;10704;42.678;23.288;2023-02-21T03:13:37;10.25;;;4.03;;
21091;SDS011;10704;42.678;23.288;2023-02-21T03:16:18;8.77;;;3.80;;
21091;SDS011;10704;42.678;23.288;2023-02-21T03:26:31;12.70;;;4.95;;
21091;SDS011;10704;42.678;23.288;2023-02-21T03:29:15;8.55;;;4.32;;
21091;SDS011;10704;42.678;23.288;2023-02-21T03:31:47;10.60;;;4.43;;
21091;SDS011;10704;42.678;23.288;2023-02-21T03:38:05;9.50;;;4.10;;
21091;SDS011;10704;42.678;23.288;2023-02-21T03:40:32;9.93;;;4.63;;
21091;SDS011;10704;42.678;23.288;2023-02-21T03:43:00;20.88;;;5.22;;
21091;SDS011;10704;42.678;23.288;2023-02-21T03:45:33;8.77;;;4.00;;
21091;SDS011;10704;42.678;23.288;2023-02-21T03:48:07;7.72;;;3.70;;
21091;SDS011;10704;42.678;23.288;2023-02-21T03:50:34;10.48;;;4.15;;
21091;SDS011;10704;42.678;23.288;2023-02-21T03:53:00;8.68;;;3.92;;
21091;SDS011;10704;42.678;23.288;2023-02-21T03:59:14;8.75;;;3.50;;
21091;SDS011;10704;42.678;23.288;2023-02-21T04:01:40;6.88;;;3.67;;
21091;SDS011;10704;42.678;23.288;2023-02-21T04:04:06;9.10;;;3.33;;
21091;SDS011;10704;42.678;23.288;2023-02-21T04:06:34;6.90;;;3.03;;
21091;SDS011;10704;42.678;23.288;2023-02-21T04:09:00;8.48;;;3.08;;
21091;SDS011;10704;42.678;23.288;2023-02-21T04:11:27;10.20;;;3.20;;
21091;SDS011;10704;42.678;23.288;2023-02-21T04:13:52;5.93;;;2.78;;
21091;SDS011;10704;42.678;23.288;2023-02-21T04:16:18;5.63;;;2.70;;
21091;SDS011;10704;42.678;23.288;2023-02-21T04:18:46;7.00;;;2.70;;
21091;SDS011;10704;42.678;23.288;2023-02-21T04:21:15;10.20;;;2.70;;
21091;SDS011;10704;42.678;23.288;2023-02-21T04:23:42;5.32;;;2.60;;
21091;SDS011;10704;42.678;23.288;2023-02-21T04:26:08;7.68;;;3.20;;
21091;SDS011;10704;42.678;23.288;2023-02-21T04:28:42;8.50;;;3.15;;
21091;SDS011;10704;42.678;23.288;2023-02-21T04:33:40;5.70;;;2.92;;
21091;SDS011;10704;42.678;23.288;2023-02-21T04:43:43;8.25;;;3.50;;
21091;SDS011;10704;42.678;23.288;2023-02-21T04:46:17;6.13;;;3.08;;
21091;SDS011;10704;42.678;23.288;2023-02-21T04:48:43;7.10;;;3.53;;
21091;SDS011;10704;42.678;23.288;2023-02-21T04:51:15;7.78;;;3.47;;
21091;SDS011;10704;42.678;23.288;2023-02-21T04:53:43;7.28;;;3.42;;
21091;SDS011;10704;42.678;23.288;2023-02-21T04:56:11;7.00;;;2.85;;
21091;SDS011;10704;42.678;23.288;2023-02-21T04:58:37;6.80;;;3.45;;
21091;SDS011;10704;42.678;23.288;2023-02-21T05:01:03;9.93;;;3.92;;
21091;SDS011;10704;42.678;23.288;2023-02-21T05:03:29;8.82;;;3.50;;
21091;SDS011;10704;42.678;23.288;2023-02-21T05:05:55;7.10;;;3.42;;
21091;SDS011;10704;42.678;23.288;2023-02-21T05:08:21;8.05;;;3.15;;
21091;SDS011;10704;42.678;23.288;2023-02-21T05:10:48;8.35;;;3.40;;
21091;SDS011;10704;42.678;23.288;2023-02-21T05:13:14;8.63;;;3.95;;
21091;SDS011;10704;42.678;23.288;2023-02-21T05:19:28;6.10;;;3.15;;
21091;SDS011;10704;42.678;23.288;2023-02-21T05:21:54;7.68;;;3.50;;
21091;SDS011;10704;42.678;23.288;2023-02-21T05:27:30;8.30;;;3.70;;
21091;SDS011;10704;42.678;23.288;2023-02-21T05:29:56;11.23;;;3.78;;
21091;SDS011;10704;42.678;23.288;2023-02-21T05:36:10;8.90;;;4.22;;
21091;SDS011;10704;42.678;23.288;2023-02-21T05:38:46;14.40;;;4.93;;
21091;SDS011;10704;42.678;23.288;2023-02-21T05:41:14;12.15;;;4.53;;
21091;SDS011;10704;42.678;23.288;2023-02-21T05:43:44;13.77;;;4.18;;
21091;SDS011;10704;42.678;23.288;2023-02-21T05:48:52;10.43;;;4.43;;
21091;SDS011;10704;42.678;23.288;2023-02-21T05:51:18;11.02;;;4.82;;
21091;SDS011;10704;42.678;23.288;2023-02-21T05:53:45;9.30;;;4.43;;
21091;SDS011;10704;42.678;23.288;2023-02-21T05:59:59;11.15;;;4.43;;
21091;SDS011;10704;42.678;23.288;2023-02-21T06:02:24;13.48;;;5.05;;
21091;SDS011;10704;42.678;23.288;2023-02-21T06:04:50;11.70;;;4.15;;
21091;SDS011;10704;42.678;23.288;2023-02-21T06:07:16;11.25;;;3.80;;
21091;SDS011;10704;42.678;23.288;2023-02-21T06:09:42;8.48;;;3.70;;
21091;SDS011;10704;42.678;23.288;2023-02-21T06:12:09;10.77;;;4.68;;
21091;SDS011;10704;42.678;23.288;2023-02-21T06:14:35;13.38;;;4.90;;
21091;SDS011;10704;42.678;23.288;2023-02-21T06:17:00;13.65;;;5.10;;
21091;SDS011;10704;42.678;23.288;2023-02-21T06:19:27;12.32;;;5.13;;
21091;SDS011;10704;42.678;23.288;2023-02-21T06:21:53;19.27;;;5.03;;
21091;SDS011;10704;42.678;23.288;2023-02-21T06:24:18;12.45;;;4.78;;
21091;SDS011;10704;42.678;23.288;2023-02-21T06:26:44;11.55;;;5.00;;
21091;SDS011;10704;42.678;23.288;2023-02-21T06:29:11;12.38;;;5.45;;
21091;SDS011;10704;42.678;23.288;2023-02-21T06:31:37;14.48;;;5.10;;
21091;SDS011;10704;42.678;23.288;2023-02-21T06:34:03;10.32;;;5.15;;
21091;SDS011;10704;42.678;23.288;2023-02-21T06:36:29;12.85;;;5.18;;
21091;SDS011;10704;42.678;23.288;2023-02-21T06:38:55;14.63;;;5.13;;
21091;SDS011;10704;42.678;23.288;2023-02-21T06:41:26;17.33;;;5.43;;
21091;SDS011;10704;42.678;23.288;2023-02-21T06:43:54;10.10;;;5.15;;
21091;SDS011;10704;42.678;23.288;2023-02-21T06:46:22;12.82;;;5.65;;
21091;SDS011;10704;42.678;23.288;2023-02-21T06:48:50;11.40;;;4.88;;
21091;SDS011;10704;42.678;23.288;2023-02-21T06:51:17;14.45;;;5.38;;
21091;SDS011;10704;42.678;23.288;2023-02-21T06:53:43;17.63;;;5.10;;
21091;SDS011;10704;42.678;23.288;2023-02-21T06:56:13;14.93;;;6.22;;
21091;SDS011;10704;42.678;23.288;2023-02-21T06:58:39;12.38;;;5.50;;
21091;SDS011;10704;42.678;23.288;2023-02-21T07:01:05;16.92;;;5.72;;
21091;SDS011;10704;42.678;23.288;2023-02-21T07:07:18;10.43;;;4.30;;
21091;SDS011;10704;42.678;23.288;2023-02-21T07:09:43;14.10;;;4.95;;
21091;SDS011;10704;42.678;23.288;2023-02-21T07:12:09;15.25;;;5.32;;
21091;SDS011;10704;42.678;23.288;2023-02-21T07:14:35;11.88;;;4.40;;
21091;SDS011;10704;42.678;23.288;2023-02-21T07:17:01;13.40;;;4.82;;
21091;SDS011;10704;42.678;23.288;2023-02-21T07:19:27;12.32;;;4.63;;
21091;SDS011;10704;42.678;23.288;2023-02-21T07:21:53;10.93;;;4.32;;
21091;SDS011;10704;42.678;23.288;2023-02-21T07:24:19;9.60;;;4.72;;
21091;SDS011;10704;42.678;23.288;2023-02-21T07:26:45;14.13;;;4.93;;
21091;SDS011;10704;42.678;23.288;2023-02-21T07:29:11;10.57;;;4.72;;
21091;SDS011;10704;42.678;23.288;2023-02-21T07:31:36;9.95;;;4.78;;
21091;SDS011;10704;42.678;23.288;2023-02-21T07:34:02;14.25;;;6.43;;
21091;SDS011;10704;42.678;23.288;2023-02-21T07:36:28;13.25;;;5.45;;
21091;SDS011;10704;42.678;23.288;2023-02-21T07:38:55;11.05;;;5.45;;
21091;SDS011;10704;42.678;23.288;2023-02-21T07:41:21;12.90;;;5.22;;
21091;SDS011;10704;42.678;23.288;2023-02-21T07:43:47;20.02;;;5.97;;
21091;SDS011;10704;42.678;23.288;2023-02-21T07:46:14;18.05;;;6.03;;
21091;SDS011;10704;42.678;23.288;2023-02-21T07:48:41;14.25;;;5.97;;
21091;SDS011;10704;42.678;23.288;2023-02-21T07:51:08;20.33;;;6.13;;
21091;SDS011;10704;42.678;23.288;2023-02-21T07:53:34;15.52;;;6.00;;
21091;SDS011;10704;42.678;23.288;2023-02-21T07:56:01;23.10;;;6.78;;
21091;SDS011;10704;42.678;23.288;2023-02-21T07:58:29;16.10;;;6.50;;
21091;SDS011;10704;42.678;23.288;2023-02-21T08:00:56;15.90;;;6.68;;
21091;SDS011;10704;42.678;23.288;2023-02-21T08:03:22;13.50;;;5.82;;
21091;SDS011;10704;42.678;23.288;2023-02-21T08:05:48;15.10;;;6.07;;
21091;SDS011;10704;42.678;23.288;2023-02-21T08:08:14;13.38;;;7.05;;
21091;SDS011;10704;42.678;23.288;2023-02-21T08:10:41;22.17;;;6.93;;
21091;SDS011;10704;42.678;23.288;2023-02-21T08:16:00;19.70;;;6.13;;
21091;SDS011;10704;42.678;23.288;2023-02-21T08:22:13;15.23;;;5.50;;
21091;SDS011;10704;42.678;23.288;2023-02-21T08:24:39;16.42;;;6.03;;
21091;SDS011;10704;42.678;23.288;2023-02-21T08:27:04;18.35;;;5.82;;
21091;SDS011;10704;42.678;23.288;2023-02-21T08:29:30;20.50;;;5.70;;
21091;SDS011;10704;42.678;23.288;2023-02-21T08:31:56;17.95;;;6.75;;
21091;SDS011;10704;42.678;23.288;2023-02-21T08:34:22;15.65;;;7.68;;
21091;SDS011;10704;42.678;23.288;2023-02-21T08:36:49;20.25;;;7.25;;
21091;SDS011;10704;42.678;23.288;2023-02-21T08:39:15;16.38;;;7.28;;
21091;SDS011;10704;42.678;23.288;2023-02-21T08:41:41;18.58;;;6.78;;
21091;SDS011;10704;42.678;23.288;2023-02-21T08:44:09;17.95;;;7.45;;
21091;SDS011;10704;42.678;23.288;2023-02-21T08:46:36;21.25;;;7.47;;
21091;SDS011;10704;42.678;23.288;2023-02-21T08:49:03;16.20;;;6.85;;
21091;SDS011;10704;42.678;23.288;2023-02-21T08:51:30;12.48;;;6.47;;
21091;SDS011;10704;42.678;23.288;2023-02-21T08:53:57;17.95;;;7.13;;
21091;SDS011;10704;42.678;23.288;2023-02-21T08:56:25;19.98;;;8.15;;
21091;SDS011;10704;42.678;23.288;2023-02-21T08:58:51;13.00;;;7.03;;
21091;SDS011;10704;42.678;23.288;2023-02-21T09:01:19;19.67;;;7.28;;
21091;SDS011;10704;42.678;23.288;2023-02-21T09:03:45;14.65;;;7.30;;
21091;SDS011;10704;42.678;23.288;2023-02-21T09:06:11;12.05;;;6.70;;
21091;SDS011;10704;42.678;23.288;2023-02-21T09:08:38;16.83;;;6.97;;
21091;SDS011;10704;42.678;23.288;2023-02-21T09:11:05;18.25;;;7.03;;
21091;SDS011;10704;42.678;23.288;2023-02-21T09:13:32;16.65;;;7.13;;
21091;SDS011;10704;42.678;23.288;2023-02-21T09:15:59;18.05;;;7.85;;
21091;SDS011;10704;42.678;23.288;2023-02-21T09:18:26;19.50;;;7.93;;
21091;SDS011;10704;42.678;23.288;2023-02-21T09:24:41;16.92;;;7.13;;
21091;SDS011;10704;42.678;23.288;2023-02-21T09:27:07;17.15;;;7.72;;
21091;SDS011;10704;42.678;23.288;2023-02-21T09:29:33;22.08;;;7.97;;
21091;SDS011;10704;42.678;23.288;2023-02-21T09:32:01;18.90;;;7.70;;
21091;SDS011;10704;42.678;23.288;2023-02-21T09:34:27;25.67;;;8.77;;
21091;SDS011;10704;42.678;23.288;2023-02-21T09:36:53;15.65;;;6.82;;
21091;SDS011;10704;42.678;23.288;2023-02-21T09:39:20;20.27;;;8.43;;
21091;SDS011;10704;42.678;23.288;2023-02-21T09:41:46;13.40;;;7.47;;
21091;SDS011;10704;42.678;23.288;2023-02-21T09:44:14;15.40;;;8.38;;
21091;SDS011;10704;42.678;23.288;2023-02-21T09:46:43;17.10;;;7.72;;
21091;SDS011;10704;42.678;23.288;2023-02-21T09:49:16;23.38;;;7.78;;
21091;SDS011;10704;42.678;23.288;2023-02-21T09:51:55;20.20;;;8.75;;
21091;SDS011;10704;42.678;23.288;2023-02-21T09:54:28;20.50;;;7.50;;
21091;SDS011;10704;42.678;23.288;2023-02-21T09:56:55;20.13;;;8.75;;
21091;SDS011;10704;42.678;23.288;2023-02-21T09:59:24;16.45;;;8.48;;
21091;SDS011;10704;42.678;23.288;2023-02-21T10:02:02;21.33;;;8.80;;
21091;SDS011;10704;42.678;23.288;2023-02-21T10:07:25;14.82;;;6.38;;
21091;SDS011;10704;42.678;23.288;2023-02-21T10:10:23;14.57;;;6.95;;
21091;SDS011;10704;42.678;23.288;2023-02-21T10:22:18;11.13;;;4.57;;
21091;SDS011;10704;42.678;23.288;2023-02-21T10:24:47;3.70;;;1.70;;
21091;SDS011;10704;42.678;23.288;2023-02-21T10:27:18;2.80;;;1.70;;
21091;SDS011;10704;42.678;23.288;2023-02-21T10:29:50;3.45;;;1.92;;
21091;SDS011;10704;42.678;23.288;2023-02-21T10:32:30;5.18;;;2.00;;
21091;SDS011;10704;42.678;23.288;2023-02-21T10:34:56;7.07;;;2.10;;
21091;SDS011;10704;42.678;23.288;2023-02-21T10:37:39;7.15;;;4.38;;
21091;SDS011;10704;42.678;23.288;2023-02-21T10:52:31;8.30;;;2.67;;
21091;SDS011;10704;42.678;23.288;2023-02-21T10:55:03;4.72;;;2.10;;
21091;SDS011;10704;42.678;23.288;2023-02-21T10:57:43;9.52;;;3.25;;
21091;SDS011;10704;42.678;23.288;2023-02-21T11:00:27;5.80;;;2.17;;
21091;SDS011;10704;42.678;23.288;2023-02-21T11:03:06;5.65;;;3.03;;
21091;SDS011;10704;42.678;23.288;2023-02-21T11:12:26;3.83;;;1.83;;
21091;SDS011;10704;42.678;23.288;2023-02-21T11:27:23;2.85;;;1.50;;
21091;SDS011;10704;42.678;23.288;2023-02-21T11:29:50;4.25;;;1.70;;
21091;SDS011;10704;42.678;23.288;2023-02-21T11:32:25;6.07;;;2.40;;
21091;SDS011;10704;42.678;23.288;2023-02-21T11:35:00;7.80;;;3.25;;
21091;SDS011;10704;42.678;23.288;2023-02-21T11:37:33;6.40;;;1.88;;
21091;SDS011;10704;42.678;23.288;2023-02-21T11:40:28;3.10;;;1.67;;
21091;SDS011;10704;42.678;23.288;2023-02-21T11:52:28;5.63;;;1.40;;
21091;SDS011;10704;42.678;23.288;2023-02-21T11:54:58;2.78;;;1.42;;
21091;SDS011;10704;42.678;23.288;2023-02-21T11:57:45;5.70;;;2.13;;
21091;SDS011;10704;42.678;23.288;2023-02-21T12:05:49;9.10;;;2.30;;
21091;SDS011;10704;42.678;23.288;2023-02-21T12:11:13;5.60;;;1.80;;
21091;SDS011;10704;42.678;23.288;2023-02-21T12:16:36;4.85;;;1.67;;
21091;SDS011;10704;42.678;23.288;2023-02-21T12:19:30;6.30;;;1.95;;
21091;SDS011;10704;42.678;23.288;2023-02-21T12:43:13;5.70;;;2.60;;
21091;SDS011;10704;42.678;23.288;2023-02-21T12:45:52;6.40;;;2.35;;
21091;SDS011;10704;42.678;23.288;2023-02-21T12:51:08;11.00;;;3.60;;
21091;SDS011;10704;42.678;23.288;2023-02-21T12:56:46;4.30;;;1.55;;
21091;SDS011;10704;42.678;23.288;2023-02-21T13:05:55;6.32;;;2.20;;
21091;SDS011;10704;42.678;23.288;2023-02-21T13:08:27;7.45;;;2.88;;
21091;SDS011;10704;42.678;23.288;2023-02-21T13:17:43;8.65;;;2.13;;
21091;SDS011;10704;42.678;23.288;2023-02-21T13:20:17;7.07;;;2.10;;
21091;SDS011;10704;42.678;23.288;2023-02-21T13:38:40;5.65;;;2.10;;
21091;SDS011;10704;42.678;23.288;2023-02-21T13:41:08;6.43;;;2.47;;
21091;SDS011;10704;42.678;23.288;2023-02-21T13:43:45;6.45;;;2.08;;
21091;SDS011;10704;42.678;23.288;2023-02-21T13:56:55;5.50;;;2.17;;
21091;SDS011;10704;42.678;23.288;2023-02-21T14:01:59;6.55;;;1.92;;
21091;SDS011;10704;42.678;23.288;2023-02-21T14:10:18;8.23;;;3.03;;
21091;SDS011;10704;42.678;23.288;2023-02-21T14:12:53;4.13;;;1.67;;
21091;SDS011;10704;42.678;23.288;2023-02-21T14:15:22;5.30;;;1.77;;
21091;SDS011;10704;42.678;23.288;2023-02-21T14:17:59;4.80;;;1.85;;
21091;SDS011;10704;42.678;23.288;2023-02-21T14:20:25;4.45;;;2.10;;
21091;SDS011;10704;42.678;23.288;2023-02-21T14:36:38;9.35;;;2.40;;
21091;SDS011;10704;42.678;23.288;2023-02-21T14:39:05;5.80;;;1.52;;
21091;SDS011;10704;42.678;23.288;2023-02-21T15:08:01;4.75;;;2.20;;
21091;SDS011;10704;42.678;23.288;2023-02-21T15:10:42;5.50;;;2.22;;
21091;SDS011;10704;42.678;23.288;2023-02-21T15:13:26;5.20;;;2.15;;
21091;SDS011;10704;42.678;23.288;2023-02-21T15:15:58;7.15;;;2.60;;
21091;SDS011;10704;42.678;23.288;2023-02-21T15:27:35;12.63;;;4.47;;
21091;SDS011;10704;42.678;23.288;2023-02-21T15:32:41;10.32;;;3.25;;
21091;SDS011;10704;42.678;23.288;2023-02-21T15:35:12;15.63;;;3.80;;
21091;SDS011;10704;42.678;23.288;2023-02-21T15:37:44;8.57;;;3.42;;
21091;SDS011;10704;42.678;23.288;2023-02-21T15:40:13;12.07;;;3.88;;
21091;SDS011;10704;42.678;23.288;2023-02-21T15:42:45;11.27;;;5.65;;
21091;SDS011;10704;42.678;23.288;2023-02-21T15:45:23;10.15;;;4.55;;
21091;SDS011;10704;42.678;23.288;2023-02-21T15:51:56;14.57;;;6.00;;
21091;SDS011;10704;42.678;23.288;2023-02-21T15:54:24;15.18;;;5.50;;
21091;SDS011;10704;42.678;23.288;2023-02-21T15:56:59;14.00;;;5.65;;
21091;SDS011;10704;42.678;23.288;2023-02-21T15:59:26;17.75;;;7.85;;
21091;SDS011;10704;42.678;23.288;2023-02-21T16:02:15;18.10;;;7.47;;
21091;SDS011;10704;42.678;23.288;2023-02-21T16:11:51;10.02;;;5.20;;
21091;SDS011;10704;42.678;23.288;2023-02-21T16:18:16;16.38;;;9.50;;
21091;SDS011;10704;42.678;23.288;2023-02-21T16:20:43;19.23;;;8.48;;
21091;SDS011;10704;42.678;23.288;2023-02-21T16:26:02;14.95;;;7.07;;
21091;SDS011;10704;42.678;23.288;2023-02-21T16:28:34;18.92;;;9.07;;
21091;SDS011;10704;42.678;23.288;2023-02-21T16:31:02;22.27;;;12.95;;
21091;SDS011;10704;42.678;23.288;2023-02-21T16:33:29;21.52;;;10.18;;
21091;SDS011;10704;42.678;23.288;2023-02-21T16:35:56;12.63;;;5.20;;
21091;SDS011;10704;42.678;23.288;2023-02-21T16:38:23;15.27;;;4.60;;
21091;SDS011;10704;42.678;23.288;2023-02-21T16:40:49;12.68;;;5.70;;
21091;SDS011;10704;42.678;23.288;2023-02-21T16:43:19;12.30;;;5.53;;
21091;SDS011;10704;42.678;23.288;2023-02-21T16:45:48;13.35;;;6.03;;
21091;SDS011;10704;42.678;23.288;2023-02-21T16:48:17;21.98;;;9.43;;
21091;SDS011;10704;42.678;23.288;2023-02-21T16:50:47;24.17;;;12.73;;
21091;SDS011;10704;42.678;23.288;2023-02-21T16:53:14;20.27;;;7.93;;
21091;SDS011;10704;42.678;23.288;2023-02-21T16:55:41;21.00;;;9.23;;
21091;SDS011;10704;42.678;23.288;2023-02-21T16:58:15;42.67;;;21.73;;
21091;SDS011;10704;42.678;23.288;2023-02-21T17:00:43;58.00;;;27.65;;
21091;SDS011;10704;42.678;23.288;2023-02-21T17:03:09;54.45;;;26.60;;
21091;SDS011;10704;42.678;23.288;2023-02-21T17:05:35;30.48;;;16.80;;
21091;SDS011;10704;42.678;23.288;2023-02-21T17:08:01;30.40;;;14.02;;
21091;SDS011;10704;42.678;23.288;2023-02-21T17:10:27;47.42;;;28.13;;
21091;SDS011;10704;42.678;23.288;2023-02-21T17:16:54;49.78;;;21.13;;
21091;SDS011;10704;42.678;23.288;2023-02-21T17:19:20;33.67;;;19.88;;
21091;SDS011;10704;42.678;23.288;2023-02-21T17:25:33;27.75;;;13.18;;
21091;SDS011;10704;42.678;23.288;2023-02-21T17:28:00;33.05;;;16.90;;
21091;SDS011;10704;42.678;23.288;2023-02-21T17:30:26;32.97;;;16.85;;
21091;SDS011;10704;42.678;23.288;2023-02-21T17:35:39;31.38;;;14.88;;
21091;SDS011;10704;42.678;23.288;2023-02-21T17:45:40;25.58;;;11.60;;
21091;SDS011;10704;42.678;23.288;2023-02-21T17:51:53;33.33;;;17.65;;
21091;SDS011;10704;42.678;23.288;2023-02-21T17:54:20;28.55;;;14.93;;
21091;SDS011;10704;42.678;23.288;2023-02-21T17:56:48;28.95;;;12.70;;
21091;SDS011;10704;42.678;23.288;2023-02-21T17:59:14;23.05;;;12.20;;
21091;SDS011;10704;42.678;23.288;2023-02-21T18:01:41;24.67;;;13.85;;
21091;SDS011;10704;42.678;23.288;2023-02-21T18:04:07;31.77;;;16.45;;
21091;SDS011;10704;42.678;23.288;2023-02-21T18:06:34;22.35;;;11.63;;
21091;SDS011;10704;42.678;23.288;2023-02-21T18:12:00;15.45;;;6.47;;
21091;SDS011;10704;42.678;23.288;2023-02-21T18:14:26;13.38;;;6.50;;
21091;SDS011;10704;42.678;23.288;2023-02-21T18:23:35;15.25;;;6.93;;
21091;SDS011;10704;42.678;23.288;2023-02-21T18:29:10;13.25;;;6.90;;
21091;SDS011;10704;42.678;23.288;2023-02-21T18:31:37;16.52;;;9.05;;
21091;SDS011;10704;42.678;23.288;2023-02-21T18:34:03;14.40;;;6.32;;
21091;SDS011;10704;42.678;23.288;2023-02-21T18:36:29;13.77;;;7.22;;
21091;SDS011;10704;42.678;23.288;2023-02-21T18:38:55;14.05;;;6.50;;
21091;SDS011;10704;42.678;23.288;2023-02-21T18:41:21;13.30;;;5.28;;
21091;SDS011;10704;42.678;23.288;2023-02-21T18:43:48;9.00;;;3.85;;
21091;SDS011;10704;42.678;23.288;2023-02-21T18:46:16;11.63;;;5.13;;
21091;SDS011;10704;42.678;23.288;2023-02-21T18:48:44;10.18;;;4.55;;
21091;SDS011;10704;42.678;23.288;2023-02-21T18:51:12;16.20;;;5.93;;
21091;SDS011;10704;42.678;23.288;2023-02-21T18:53:39;12.98;;;5.90;;
21091;SDS011;10704;42.678;23.288;2023-02-21T18:56:08;13.43;;;5.93;;
21091;SDS011;10704;42.678;23.288;2023-02-21T18:58:35;16.33;;;6.97;;
21091;SDS011;10704;42.678;23.288;2023-02-21T19:07:40;23.10;;;8.43;;
21091;SDS011;10704;42.678;23.288;2023-02-21T19:13:54;17.48;;;8.13;;
21091;SDS011;10704;42.678;23.288;2023-02-21T19:16:20;15.38;;;7.13;;
21091;SDS011;10704;42.678;23.288;2023-02-21T19:18:48;15.77;;;7.60;;
21091;SDS011;10704;42.678;23.288;2023-02-21T19:21:15;18.63;;;7.97;;
21091;SDS011;10704;42.678;23.288;2023-02-21T19:23:41;17.95;;;7.90;;
21091;SDS011;10704;42.678;23.288;2023-02-21T19:26:08;13.85;;;6.68;;
21091;SDS011;10704;42.678;23.288;2023-02-21T19:28:35;17.80;;;8.68;;
21091;SDS011;10704;42.678;23.288;2023-02-21T19:38:19;14.93;;;6.82;;
21091;SDS011;10704;42.678;23.288;2023-02-21T19:40:45;13.75;;;7.72;;
21091;SDS011;10704;42.678;23.288;2023-02-21T19:43:11;17.13;;;7.18;;
21091;SDS011;10704;42.678;23.288;2023-02-21T19:45:38;18.48;;;7.38;;
21091;SDS011;10704;42.678;23.288;2023-02-21T19:48:05;19.13;;;8.25;;
21091;SDS011;10704;42.678;23.288;2023-02-21T19:54:20;14.65;;;6.85;;
21091;SDS011;10704;42.678;23.288;2023-02-21T19:56:49;14.80;;;6.95;;
21091;SDS011;10704;42.678;23.288;2023-02-21T19:59:15;11.57;;;6.18;;
21091;SDS011;10704;42.678;23.288;2023-02-21T20:01:44;12.23;;;6.07;;
21091;SDS011;10704;42.678;23.288;2023-02-21T20:04:10;10.95;;;6.25;;
21091;SDS011;10704;42.678;23.288;2023-02-21T20:06:36;12.98;;;5.50;;
21091;SDS011;10704;42.678;23.288;2023-02-21T20:12:51;14.75;;;6.47;;
21091;SDS011;10704;42.678;23.288;2023-02-21T20:15:17;15.00;;;8.82;;
21091;SDS011;10704;42.678;23.288;2023-02-21T20:25:18;14.27;;;7.60;;
21091;SDS011;10704;42.678;23.288;2023-02-21T20:27:45;13.57;;;6.95;;
21091;SDS011;10704;42.678;23.288;2023-02-21T20:33:01;16.02;;;6.82;;
21091;SDS011;10704;42.678;23.288;2023-02-21T20:38:16;16.90;;;7.95;;
21091;SDS011;10704;42.678;23.288;2023-02-21T20:40:59;13.38;;;7.28;;
21091;SDS011;10704;42.678;23.288;2023-02-21T20:43:25;16.92;;;7.78;;
21091;SDS011;10704;42.678;23.288;2023-02-21T20:45:52;17.38;;;7.72;;
21091;SDS011;10704;42.678;23.288;2023-02-21T20:48:19;17.83;;;8.00;;
21091;SDS011;10704;42.678;23.288;2023-02-21T20:50:49;14.07;;;6.72;;
21091;SDS011;10704;42.678;23.288;2023-02-21T20:57:03;16.67;;;7.68;;
21091;SDS011;10704;42.678;23.288;2023-02-21T20:59:33;16.42;;;6.90;;
21091;SDS011;10704;42.678;23.288;2023-02-21T21:08:48;12.60;;;5.82;;
21091;SDS011;10704;42.678;23.288;2023-02-21T21:11:14;13.48;;;6.60;;
21091;SDS011;10704;42.678;23.288;2023-02-21T21:13:40;11.63;;;5.80;;
21091;SDS011;10704;42.678;23.288;2023-02-21T21:16:12;14.30;;;5.57;;
21091;SDS011;10704;42.678;23.288;2023-02-21T21:18:40;10.40;;;5.50;;
21091;SDS011;10704;42.678;23.288;2023-02-21T21:21:06;13.05;;;5.72;;
21091;SDS011;10704;42.678;23.288;2023-02-21T21:23:32;12.60;;;5.00;;
21091;SDS011;10704;42.678;23.288;2023-02-21T21:25:58;13.90;;;5.15;;
21091;SDS011;10704;42.678;23.288;2023-02-21T21:28:29;11.35;;;5.55;;
21091;SDS011;10704;42.678;23.288;2023-02-21T21:30:58;13.38;;;5.80;;
21091;SDS011;10704;42.678;23.288;2023-02-21T21:33:26;11.45;;;5.32;;
21091;SDS011;10704;42.678;23.288;2023-02-21T21:35:53;13.43;;;7.25;;
21091;SDS011;10704;42.678;23.288;2023-02-21T21:38:26;18.17;;;7.78;;
21091;SDS011;10704;42.678;23.288;2023-02-21T21:40:53;14.38;;;7.45;;
21091;SDS011;10704;42.678;23.288;2023-02-21T21:43:21;15.73;;;7.97;;
21091;SDS011;10704;42.678;23.288;2023-02-21T21:45:48;13.73;;;7.55;;
21091;SDS011;10704;42.678;23.288;2023-02-21T21:48:14;14.70;;;6.97;;
21091;SDS011;10704;42.678;23.288;2023-02-21T21:50:40;19.67;;;8.18;;
21091;SDS011;10704;42.678;23.288;2023-02-21T22:00:44;12.85;;;6.10;;
21091;SDS011;10704;42.678;23.288;2023-02-21T22:03:11;10.73;;;5.40;;
21091;SDS011;10704;42.678;23.288;2023-02-21T22:05:38;8.60;;;4.45;;
21091;SDS011;10704;42.678;23.288;2023-02-21T22:08:09;12.23;;;5.32;;